Time;durP1;ratioP1;P1;durP2;ratioP2;P2;SDS_P1;SDS_P2;PMS_P1;PMS_P2;Temp;Humidity;BMP_temperature;BMP_pressure;BME280_temperature;BME280_humidity;BME280_pressure;Samples;Min_cycle;Max_cycle;Signal;HPM_P1;HPM_P2
2023/08/26 00:02:08;;;;;;;54.67;31.17;;;;;;;;;;6148805;28;20197;-63
2023/08/26 00:05:09;;;;;;;66.23;28.43;;;;;;;;;;6179050;28;20199;-63
2023/08/26 00:08:10;;;;;;;65.77;30.03;;;;;;;;;;6175350;28;20275;-63
2023/08/26 00:11:11;;;;;;;57.40;29.17;;;;;;;;;;6163943;28;20192;-63
2023/08/26 00:14:12;;;;;;;84.80;34.27;;;;;;;;;;6162491;28;20208;-63
2023/08/26 00:17:13;;;;;;;56.00;27.17;;;;;;;;;;6164638;28;20216;-63
2023/08/26 00:20:15;;;;;;;68.47;32.53;;;;;;;;;;6157061;28;20203;-63
2023/08/26 00:23:16;;;;;;;42.37;27.73;;;;;;;;;;6163288;28;20189;-63
2023/08/26 00:26:17;;;;;;;75.23;33.27;;;;;;;;;;6165623;28;20191;-63
2023/08/26 00:29:18;;;;;;;51.80;29.80;;;;;;;;;;6170648;28;20218;-63
2023/08/26 00:32:19;;;;;;;67.40;31.03;;;;;;;;;;6162965;28;20231;-63
2023/08/26 00:35:20;;;;;;;70.90;32.77;;;;;;;;;;6171302;28;20284;-64
2023/08/26 00:38:22;;;;;;;57.67;29.20;;;;;;;;;;6161756;28;20223;-63
2023/08/26 00:41:23;;;;;;;66.10;30.97;;;;;;;;;;6164649;28;20255;-63
2023/08/26 00:44:24;;;;;;;62.43;29.10;;;;;;;;;;6159718;28;20200;-63
2023/08/26 00:47:26;;;;;;;60.87;29.80;;;;;;;;;;6178566;28;20196;-64
2023/08/26 00:50:28;;;;;;;56.13;30.23;;;;;;;;;;6176831;28;20185;-63
2023/08/26 00:53:30;;;;;;;56.23;30.40;;;;;;;;;;6162117;28;20251;-64
2023/08/26 00:56:31;;;;;;;66.37;32.03;;;;;;;;;;6154217;28;20227;-63
2023/08/26 00:59:33;;;;;;;74.50;30.87;;;;;;;;;;6170407;28;20181;-63
2023/08/26 01:02:34;;;;;;;72.03;32.50;;;;;;;;;;6148153;28;20180;-63
2023/08/26 01:05:35;;;;;;;60.37;29.33;;;;;;;;;;6157510;28;20196;-63
2023/08/26 01:08:36;;;;;;;60.93;31.87;;;;;;;;;;6158512;28;20240;-63
2023/08/26 01:11:42;;;;;;;62.00;30.67;;;;;;;;;;6176043;28;20200;-63
2023/08/26 01:14:53;;;;;;;59.43;26.90;;;;;;;;;;6177499;28;20185;-63
2023/08/26 01:17:55;;;;;;;71.03;32.33;;;;;;;;;;6176429;28;20216;-63
2023/08/26 01:20:56;;;;;;;73.03;32.00;;;;;;;;;;6167162;28;20195;-63
2023/08/26 01:23:58;;;;;;;72.50;31.00;;;;;;;;;;6186204;28;20271;-63
2023/08/26 01:26:59;;;;;;;64.13;29.63;;;;;;;;;;6154231;28;20227;-63
2023/08/26 01:30:01;;;;;;;68.80;30.93;;;;;;;;;;6167584;28;20244;-64
2023/08/26 01:33:22;;;;;;;64.90;30.10;;;;;;;;;;6157126;28;20220;-63
2023/08/26 01:36:24;;;;;;;59.13;26.77;;;;;;;;;;6179599;28;20604;-64
2023/08/26 01:39:26;;;;;;;48.63;23.00;;;;;;;;;;6169802;28;20192;-64
2023/08/26 01:42:28;;;;;;;50.77;25.10;;;;;;;;;;6147339;28;20235;-63
2023/08/26 01:45:29;;;;;;;44.13;24.03;;;;;;;;;;6168569;28;20193;-63
2023/08/26 01:48:30;;;;;;;43.67;22.27;;;;;;;;;;6175726;28;20223;-63
2023/08/26 01:51:32;;;;;;;46.43;25.23;;;;;;;;;;6156505;28;20247;-63
2023/08/26 01:54:33;;;;;;;46.30;23.67;;;;;;;;;;6160950;28;20191;-63
2023/08/26 01:57:34;;;;;;;48.23;25.60;;;;;;;;;;6159284;28;20180;-63
2023/08/26 02:00:35;;;;;;;44.97;23.60;;;;;;;;;;6157093;28;20193;-64
2023/08/26 02:03:36;;;;;;;50.70;27.20;;;;;;;;;;6156092;28;20185;-64
2023/08/26 02:06:40;;;;;;;51.10;26.53;;;;;;;;;;6148596;28;20318;-63
2023/08/26 02:09:41;;;;;;;49.53;27.20;;;;;;;;;;6158974;28;20200;-63
2023/08/26 02:12:42;;;;;;;52.67;26.63;;;;;;;;;;6172191;28;20227;-64
2023/08/26 02:15:43;;;;;;;51.47;27.10;;;;;;;;;;6171823;28;20206;-64
2023/08/26 02:18:44;;;;;;;49.30;25.10;;;;;;;;;;6154950;28;20278;-64
2023/08/26 02:21:46;;;;;;;50.07;24.00;;;;;;;;;;6160053;28;20196;-64
2023/08/26 02:24:47;;;;;;;48.20;25.47;;;;;;;;;;6170836;28;20196;-63
2023/08/26 02:27:48;;;;;;;36.33;22.50;;;;;;;;;;6171651;28;20195;-63
2023/08/26 02:30:49;;;;;;;45.23;26.97;;;;;;;;;;6157999;28;20193;-63
2023/08/26 02:33:50;;;;;;;49.23;26.70;;;;;;;;;;6175623;28;20223;-63
2023/08/26 02:36:51;;;;;;;42.80;24.43;;;;;;;;;;6161506;28;20213;-63
2023/08/26 02:39:52;;;;;;;38.63;24.87;;;;;;;;;;6159158;28;20193;-63
2023/08/26 02:42:53;;;;;;;54.70;26.73;;;;;;;;;;6160880;28;20196;-63
2023/08/26 02:45:55;;;;;;;49.60;25.17;;;;;;;;;;6179772;28;20189;-64
2023/08/26 02:48:56;;;;;;;46.30;24.90;;;;;;;;;;6156625;28;20192;-63
2023/08/26 02:51:57;;;;;;;40.70;22.67;;;;;;;;;;6147780;28;20202;-63
2023/08/26 02:54:58;;;;;;;38.57;23.10;;;;;;;;;;6159309;28;20299;-64
2023/08/26 02:57:59;;;;;;;29.57;20.13;;;;;;;;;;6163745;28;20185;-63
2023/08/26 03:01:01;;;;;;;39.80;22.90;;;;;;;;;;6158290;28;20192;-64
2023/08/26 03:04:02;;;;;;;28.70;20.23;;;;;;;;;;6159024;28;20196;-63
2023/08/26 03:07:03;;;;;;;30.93;21.73;;;;;;;;;;6155110;28;20248;-63
2023/08/26 03:10:04;;;;;;;33.90;20.70;;;;;;;;;;6175063;28;20196;-64
2023/08/26 03:13:07;;;;;;;31.07;21.60;;;;;;;;;;6153371;28;20199;-64
2023/08/26 03:16:11;;;;;;;38.10;22.83;;;;;;;;;;6142054;29;20217;-64
2023/08/26 03:19:12;;;;;;;30.17;20.83;;;;;;;;;;6180597;28;20192;-63
2023/08/26 03:22:13;;;;;;;40.27;22.67;;;;;;;;;;6159937;28;20184;-63
2023/08/26 03:25:14;;;;;;;31.00;20.90;;;;;;;;;;6158607;28;20188;-64
2023/08/26 03:28:15;;;;;;;45.13;23.27;;;;;;;;;;6155140;28;20248;-64
2023/08/26 03:31:16;;;;;;;34.73;22.77;;;;;;;;;;6170367;28;20216;-64
2023/08/26 03:34:18;;;;;;;34.10;23.73;;;;;;;;;;6172826;28;20248;-63
2023/08/26 03:37:19;;;;;;;35.87;23.20;;;;;;;;;;6157863;28;20216;-63
2023/08/26 03:40:22;;;;;;;42.63;25.73;;;;;;;;;;6168056;28;20259;-64
2023/08/26 03:43:23;;;;;;;40.07;24.87;;;;;;;;;;6146414;28;20185;-63
2023/08/26 03:46:24;;;;;;;30.57;22.97;;;;;;;;;;6160370;28;20200;-64
2023/08/26 03:49:25;;;;;;;36.17;22.87;;;;;;;;;;6155348;28;20336;-64
2023/08/26 03:52:26;;;;;;;37.83;25.37;;;;;;;;;;6171269;28;20211;-63
2023/08/26 03:55:27;;;;;;;38.13;23.97;;;;;;;;;;6159333;28;20211;-63
2023/08/26 03:58:29;;;;;;;35.13;23.67;;;;;;;;;;6157497;28;20272;-63
2023/08/26 04:01:31;;;;;;;32.83;23.53;;;;;;;;;;6158570;28;20191;-63
2023/08/26 04:04:32;;;;;;;39.27;24.27;;;;;;;;;;6158688;28;20203;-63
2023/08/26 04:07:33;;;;;;;51.20;24.53;;;;;;;;;;6157727;28;20272;-67
2023/08/26 04:10:34;;;;;;;39.17;23.90;;;;;;;;;;6163740;28;20207;-65
2023/08/26 04:13:35;;;;;;;36.40;23.97;;;;;;;;;;6157946;28;20188;-65
2023/08/26 04:16:36;;;;;;;39.40;23.93;;;;;;;;;;6171512;28;20267;-65
2023/08/26 04:19:37;;;;;;;36.87;24.07;;;;;;;;;;6173939;28;20184;-65
2023/08/26 04:22:38;;;;;;;37.80;22.90;;;;;;;;;;6171759;28;20212;-64
2023/08/26 04:25:39;;;;;;;43.23;23.57;;;;;;;;;;6173192;28;20247;-65
2023/08/26 04:28:40;;;;;;;41.73;24.53;;;;;;;;;;6173552;28;20219;-66
2023/08/26 04:31:41;;;;;;;43.20;23.90;;;;;;;;;;6156146;28;20197;-64
2023/08/26 04:34:42;;;;;;;37.30;24.20;;;;;;;;;;6160308;28;20200;-64
2023/08/26 04:37:43;;;;;;;31.90;23.30;;;;;;;;;;6164260;28;20196;-64
2023/08/26 04:40:45;;;;;;;36.47;24.60;;;;;;;;;;6162655;28;20216;-65
2023/08/26 04:43:47;;;;;;;41.80;23.43;;;;;;;;;;6139853;28;20279;-66
2023/08/26 04:46:48;;;;;;;39.77;23.90;;;;;;;;;;6162315;28;20208;-65
2023/08/26 04:49:49;;;;;;;32.73;22.47;;;;;;;;;;6156865;28;20201;-66
2023/08/26 04:52:50;;;;;;;32.33;22.13;;;;;;;;;;6154927;28;20192;-67
2023/08/26 04:55:52;;;;;;;44.20;23.60;;;;;;;;;;6158902;28;20216;-66
2023/08/26 04:58:53;;;;;;;32.17;23.47;;;;;;;;;;6166372;28;20203;-66
2023/08/26 05:01:54;;;;;;;42.23;23.10;;;;;;;;;;6153793;28;20232;-66
2023/08/26 05:04:55;;;;;;;28.77;21.40;;;;;;;;;;6161657;28;20200;-66
2023/08/26 05:07:56;;;;;;;31.50;21.53;;;;;;;;;;6171799;28;20247;-66
2023/08/26 05:10:57;;;;;;;30.63;22.17;;;;;;;;;;6158231;28;20188;-66
2023/08/26 05:13:58;;;;;;;31.83;22.20;;;;;;;;;;6171994;28;20200;-66
2023/08/26 05:16:59;;;;;;;27.43;21.50;;;;;;;;;;6178314;28;20247;-65
2023/08/26 05:20:00;;;;;;;27.90;21.80;;;;;;;;;;6159177;28;20193;-65
2023/08/26 05:23:02;;;;;;;30.73;21.50;;;;;;;;;;6150179;28;20195;-65
2023/08/26 05:26:03;;;;;;;44.60;23.73;;;;;;;;;;6142193;28;20201;-67
2023/08/26 05:29:04;;;;;;;45.37;24.80;;;;;;;;;;6159701;28;20200;-67
2023/08/26 05:32:05;;;;;;;38.33;24.97;;;;;;;;;;6153106;28;20197;-68
2023/08/26 05:35:06;;;;;;;36.90;23.80;;;;;;;;;;6152271;28;20213;-68
2023/08/26 05:38:07;;;;;;;44.60;24.40;;;;;;;;;;6176600;28;20215;-68
2023/08/26 05:41:08;;;;;;;36.00;23.40;;;;;;;;;;6160778;28;20204;-68
2023/08/26 05:44:09;;;;;;;37.83;23.77;;;;;;;;;;6174310;28;20192;-68
2023/08/26 05:47:10;;;;;;;32.87;24.33;;;;;;;;;;6159058;28;20224;-67
2023/08/26 05:50:11;;;;;;;28.70;22.30;;;;;;;;;;6175926;28;20191;-67
2023/08/26 05:53:12;;;;;;;35.83;21.97;;;;;;;;;;6176497;28;20211;-68
2023/08/26 05:56:13;;;;;;;36.73;22.80;;;;;;;;;;6159200;28;20219;-68
2023/08/26 05:59:14;;;;;;;51.07;24.67;;;;;;;;;;6156377;28;20195;-66
2023/08/26 06:02:15;;;;;;;40.50;23.83;;;;;;;;;;6160685;28;20192;-67
2023/08/26 06:05:17;;;;;;;40.53;24.80;;;;;;;;;;6158094;28;20221;-66
2023/08/26 06:08:18;;;;;;;50.83;25.07;;;;;;;;;;6175520;28;20294;-65
2023/08/26 06:11:19;;;;;;;37.30;24.10;;;;;;;;;;6167078;28;20201;-66
2023/08/26 06:14:20;;;;;;;42.57;25.07;;;;;;;;;;6159501;28;20252;-67
2023/08/26 06:17:21;;;;;;;42.80;23.93;;;;;;;;;;6160222;28;20300;-65
2023/08/26 06:20:25;;;;;;;39.17;24.97;;;;;;;;;;6170341;28;20185;-64
2023/08/26 06:23:26;;;;;;;43.60;25.00;;;;;;;;;;6173825;28;20193;-65
2023/08/26 06:26:27;;;;;;;40.00;25.10;;;;;;;;;;6160556;28;20189;-64
2023/08/26 06:29:29;;;;;;;36.27;23.83;;;;;;;;;;6156737;28;20214;-69
2023/08/26 06:32:30;;;;;;;39.80;24.83;;;;;;;;;;6163486;28;20227;-65
2023/08/26 06:35:31;;;;;;;35.87;25.10;;;;;;;;;;6159166;28;20212;-66
2023/08/26 06:38:32;;;;;;;43.33;25.23;;;;;;;;;;6175426;28;20194;-64
2023/08/26 06:41:33;;;;;;;46.67;27.17;;;;;;;;;;6159102;28;20197;-66
2023/08/26 06:44:34;;;;;;;38.33;25.50;;;;;;;;;;6158493;28;20239;-66
2023/08/26 06:47:36;;;;;;;37.80;24.77;;;;;;;;;;6158337;28;20200;-66
2023/08/26 06:50:37;;;;;;;47.07;28.03;;;;;;;;;;6157482;28;20192;-65
2023/08/26 06:53:38;;;;;;;42.60;27.07;;;;;;;;;;6166578;28;20192;-66
2023/08/26 06:56:39;;;;;;;49.30;26.90;;;;;;;;;;6156841;28;20243;-65
2023/08/26 06:59:40;;;;;;;45.17;27.70;;;;;;;;;;6159252;28;20191;-65
2023/08/26 07:02:41;;;;;;;47.53;28.37;;;;;;;;;;6158780;28;20279;-65
2023/08/26 07:05:46;;;;;;;45.00;27.33;;;;;;;;;;6158962;28;20198;-67
2023/08/26 07:08:47;;;;;;;67.33;30.50;;;;;;;;;;6155127;28;20255;-68
2023/08/26 07:11:48;;;;;;;48.07;26.17;;;;;;;;;;6173892;28;20217;-66
2023/08/26 07:14:49;;;;;;;39.93;26.17;;;;;;;;;;6159209;28;20192;-66
2023/08/26 07:17:50;;;;;;;51.27;27.57;;;;;;;;;;6165456;28;20191;-64
2023/08/26 07:20:51;;;;;;;50.10;27.63;;;;;;;;;;6160973;28;20501;-65
2023/08/26 07:23:52;;;;;;;44.37;27.33;;;;;;;;;;6157878;28;20283;-66
2023/08/26 07:26:53;;;;;;;44.03;26.83;;;;;;;;;;6173829;28;20222;-67
2023/08/26 07:29:54;;;;;;;51.17;28.27;;;;;;;;;;6158048;28;20218;-66
2023/08/26 07:32:55;;;;;;;45.43;27.90;;;;;;;;;;6156315;28;20184;-67
2023/08/26 07:36:02;;;;;;;50.47;28.63;;;;;;;;;;6163866;28;20215;-67
2023/08/26 07:39:03;;;;;;;49.17;29.80;;;;;;;;;;6185597;28;20197;-67
2023/08/26 07:42:04;;;;;;;49.63;27.33;;;;;;;;;;6155679;28;20188;-66
2023/08/26 07:45:06;;;;;;;47.83;27.07;;;;;;;;;;6156848;28;20184;-66
2023/08/26 07:48:07;;;;;;;41.17;25.77;;;;;;;;;;6150404;28;20275;-66
2023/08/26 07:51:08;;;;;;;51.67;28.17;;;;;;;;;;6153583;28;20196;-66
2023/08/26 07:54:09;;;;;;;40.93;22.00;;;;;;;;;;6150079;28;20199;-66
2023/08/26 07:57:10;;;;;;;49.93;26.00;;;;;;;;;;6164093;28;20300;-65
2023/08/26 08:00:12;;;;;;;50.23;25.03;;;;;;;;;;6145599;28;20197;-65
2023/08/26 08:03:13;;;;;;;52.73;25.30;;;;;;;;;;6168782;28;20196;-66
2023/08/26 08:06:14;;;;;;;59.93;28.27;;;;;;;;;;6167788;28;20314;-66
2023/08/26 08:09:15;;;;;;;49.17;26.53;;;;;;;;;;6167977;28;20222;-66
2023/08/26 08:12:16;;;;;;;48.57;25.40;;;;;;;;;;6156464;28;20197;-66
2023/08/26 08:15:17;;;;;;;60.03;26.60;;;;;;;;;;6174439;28;20235;-65
2023/08/26 08:18:18;;;;;;;53.30;28.20;;;;;;;;;;6166693;28;20201;-67
2023/08/26 08:21:19;;;;;;;44.07;26.40;;;;;;;;;;6166317;28;20183;-65
2023/08/26 08:24:20;;;;;;;57.10;26.90;;;;;;;;;;6177790;28;20192;-66
2023/08/26 08:27:21;;;;;;;51.10;27.57;;;;;;;;;;6168361;28;20197;-66
2023/08/26 08:30:22;;;;;;;68.93;29.60;;;;;;;;;;6162519;28;20193;-65
2023/08/26 08:33:23;;;;;;;52.47;26.03;;;;;;;;;;6166402;28;20201;-65
2023/08/26 08:36:25;;;;;;;68.77;29.13;;;;;;;;;;6172759;28;20223;-66
2023/08/26 08:39:26;;;;;;;59.77;28.37;;;;;;;;;;6160761;28;20195;-66
2023/08/26 08:42:27;;;;;;;61.23;28.00;;;;;;;;;;6160945;28;20197;-69
2023/08/26 08:45:28;;;;;;;51.57;27.83;;;;;;;;;;6175742;28;20188;-66
2023/08/26 08:48:32;;;;;;;44.33;24.57;;;;;;;;;;6160822;28;20271;-66
2023/08/26 08:51:34;;;;;;;58.90;26.93;;;;;;;;;;6163815;28;20343;-66
2023/08/26 08:54:35;;;;;;;47.60;25.07;;;;;;;;;;6173951;28;20261;-66
2023/08/26 08:57:36;;;;;;;45.03;24.37;;;;;;;;;;6174902;28;20216;-66
2023/08/26 09:00:37;;;;;;;49.53;24.17;;;;;;;;;;6160717;28;20184;-66
2023/08/26 09:03:38;;;;;;;39.23;22.63;;;;;;;;;;6161577;28;20212;-66
2023/08/26 09:06:39;;;;;;;22.93;20.63;;;;;;;;;;6174392;28;20270;-66
2023/08/26 09:09:40;;;;;;;22.63;20.30;;;;;;;;;;6173431;28;20277;-67
2023/08/26 09:12:42;;;;;;;20.83;18.63;;;;;;;;;;6162848;28;20192;-67
2023/08/26 09:15:43;;;;;;;23.37;21.30;;;;;;;;;;6180654;28;20204;-66
2023/08/26 09:18:44;;;;;;;23.00;19.33;;;;;;;;;;6163321;28;20201;-67
2023/08/26 09:21:45;;;;;;;18.67;16.30;;;;;;;;;;6165519;28;20199;-69
2023/08/26 09:24:47;;;;;;;20.80;18.80;;;;;;;;;;6180016;28;20288;-71
2023/08/26 09:27:48;;;;;;;20.43;18.23;;;;;;;;;;6170300;28;20200;-70
2023/08/26 09:31:03;;;;;;;21.57;17.97;;;;;;;;;;6156065;28;20199;-69
2023/08/26 09:34:04;;;;;;;20.03;18.13;;;;;;;;;;6176304;28;20188;-69
2023/08/26 09:37:08;;;;;;;21.57;17.87;;;;;;;;;;6169722;28;20224;-69
2023/08/26 09:40:14;;;;;;;20.73;17.60;;;;;;;;;;6160239;28;20185;-69
2023/08/26 09:43:15;;;;;;;24.40;19.30;;;;;;;;;;6155998;28;20189;-69
2023/08/26 09:46:19;;;;;;;23.63;17.10;;;;;;;;;;6177755;28;20201;-69
2023/08/26 09:49:21;;;;;;;18.57;16.67;;;;;;;;;;6177272;28;20193;-69
2023/08/26 09:52:22;;;;;;;19.07;17.27;;;;;;;;;;6156027;28;20199;-69
2023/08/26 09:55:23;;;;;;;21.63;17.90;;;;;;;;;;6170515;28;20307;-70
2023/08/26 09:58:24;;;;;;;22.73;18.07;;;;;;;;;;6153229;28;20246;-70
2023/08/26 10:01:25;;;;;;;20.07;18.07;;;;;;;;;;6155283;28;20239;-69
2023/08/26 10:04:26;;;;;;;17.77;16.07;;;;;;;;;;6158008;28;20205;-71
2023/08/26 10:07:28;;;;;;;17.43;15.73;;;;;;;;;;6158328;28;20244;-71
2023/08/26 10:10:36;;;;;;;19.50;17.67;;;;;;;;;;6172382;28;20189;-71
2023/08/26 10:13:37;;;;;;;17.57;16.00;;;;;;;;;;6180881;28;20276;-72
2023/08/26 10:16:39;;;;;;;20.03;17.37;;;;;;;;;;6180506;28;20278;-71
2023/08/26 10:19:41;;;;;;;18.00;16.30;;;;;;;;;;6152739;28;20181;-71
2023/08/26 10:22:42;;;;;;;18.73;16.93;;;;;;;;;;6169482;28;20323;-72
2023/08/26 10:25:45;;;;;;;17.47;15.87;;;;;;;;;;6156675;28;20290;-72
2023/08/26 10:28:48;;;;;;;17.53;15.87;;;;;;;;;;6174732;28;20231;-72
2023/08/26 10:31:51;;;;;;;17.27;15.77;;;;;;;;;;6174165;28;20203;-72
2023/08/26 10:34:54;;;;;;;15.40;14.13;;;;;;;;;;6157153;28;20193;-72
2023/08/26 10:38:14;;;;;;;15.70;14.30;;;;;;;;;;6166056;28;20177;-72
2023/08/26 10:41:15;;;;;;;16.17;14.77;;;;;;;;;;6172638;28;20181;-72
2023/08/26 10:44:29;;;;;;;16.43;14.93;;;;;;;;;;6169041;28;20254;-72
2023/08/26 10:47:40;;;;;;;14.90;13.67;;;;;;;;;;6166039;28;20268;-72
2023/08/26 10:50:46;;;;;;;15.60;14.27;;;;;;;;;;6167343;28;20196;-71
2023/08/26 10:53:48;;;;;;;13.83;12.50;;;;;;;;;;6164126;28;20203;-71
2023/08/26 10:56:58;;;;;;;14.03;12.93;;;;;;;;;;6152269;28;20212;-72
2023/08/26 11:00:08;;;;;;;14.77;13.57;;;;;;;;;;6164208;28;20196;-71
2023/08/26 11:03:10;;;;;;;14.57;13.30;;;;;;;;;;6175164;28;20277;-72
2023/08/26 11:06:19;;;;;;;17.00;15.57;;;;;;;;;;6171368;28;20199;-72
2023/08/26 11:09:20;;;;;;;14.93;13.63;;;;;;;;;;6186293;28;20224;-72
2023/08/26 11:12:29;;;;;;;15.37;14.07;;;;;;;;;;6170200;28;20280;-72
2023/08/26 11:15:37;;;;;;;13.77;12.57;;;;;;;;;;6170047;28;20248;-72
2023/08/26 11:18:38;;;;;;;13.53;12.43;;;;;;;;;;6169906;28;20220;-72
2023/08/26 11:21:39;;;;;;;14.53;13.20;;;;;;;;;;6154923;28;20188;-71
2023/08/26 11:24:46;;;;;;;14.00;12.77;;;;;;;;;;6171903;28;20328;-72
2023/08/26 11:27:47;;;;;;;15.87;14.40;;;;;;;;;;6170874;28;20188;-72
2023/08/26 11:30:49;;;;;;;13.67;12.50;;;;;;;;;;6148414;28;20284;-72
2023/08/26 11:33:52;;;;;;;13.23;11.93;;;;;;;;;;6153814;28;20276;-73
2023/08/26 11:36:56;;;;;;;14.57;13.37;;;;;;;;;;6170715;28;20200;-73
2023/08/26 11:40:02;;;;;;;13.20;12.10;;;;;;;;;;6172751;28;20251;-73
2023/08/26 11:43:10;;;;;;;15.13;13.60;;;;;;;;;;6174959;28;20244;-73
2023/08/26 11:46:11;;;;;;;12.70;11.53;;;;;;;;;;6174699;28;20218;-73
2023/08/26 11:49:12;;;;;;;15.73;14.30;;;;;;;;;;6151787;28;20205;-72
2023/08/26 11:52:13;;;;;;;13.80;12.63;;;;;;;;;;6170063;28;20219;-73
2023/08/26 11:55:14;;;;;;;13.33;12.17;;;;;;;;;;6160900;28;20223;-73
2023/08/26 11:58:15;;;;;;;13.07;11.87;;;;;;;;;;6159709;28;20197;-73
2023/08/26 12:01:16;;;;;;;15.20;13.90;;;;;;;;;;6160005;28;20189;-73
2023/08/26 12:04:18;;;;;;;14.73;13.50;;;;;;;;;;6170804;28;20221;-74
2023/08/26 12:07:19;;;;;;;12.33;10.87;;;;;;;;;;6176869;28;20243;-72
2023/08/26 12:10:20;;;;;;;11.47;10.40;;;;;;;;;;6157578;28;20189;-73
2023/08/26 12:13:21;;;;;;;10.20;9.40;;;;;;;;;;6152617;28;20189;-73
2023/08/26 12:16:22;;;;;;;11.00;9.07;;;24.30;99.90;;;;;;6166640;28;20211;-73
2023/08/26 12:19:23;;;;;;;9.70;8.73;;;;;;;;;;6149743;28;20196;-73
2023/08/26 12:22:24;;;;;;;9.60;8.70;;;;;;;;;;6174799;28;20196;-73
2023/08/26 12:25:26;;;;;;;9.00;8.38;;;;;;;;;;6187942;28;20194;-73
2023/08/26 12:28:28;;;;;;;9.15;8.07;;;;;;;;;;6180064;28;20181;-73
2023/08/26 12:31:33;;;;;;;8.07;7.47;;;37.50;88.40;;;;;;6174061;28;20212;-72
2023/08/26 12:34:33;;;;;;;8.73;8.13;;;38.50;82.80;;;;;;6162550;28;20197;-73
2023/08/26 12:37:37;;;;;;;8.40;7.70;;;39.00;80.50;;;;;;6158994;28;21848;-73
2023/08/26 12:40:39;;;;;;;8.75;7.90;;;39.70;75.70;;;;;;6159869;28;20220;-74
2023/08/26 12:43:39;;;;;;;8.02;7.43;;;40.00;74.30;;;;;;6151221;28;20185;-73
2023/08/26 12:46:40;;;;;;;8.68;7.97;;;39.90;71.30;;;;;;6161656;28;20331;-73
2023/08/26 12:49:41;;;;;;;8.52;7.63;;;40.00;64.30;;;;;;6159464;28;20222;-73
2023/08/26 12:52:41;;;;;;;9.60;6.88;;;40.00;64.90;;;;;;6153037;28;20296;-74
2023/08/26 12:55:42;;;;;;;8.30;7.25;;;41.40;60.20;;;;;;6151031;28;20300;-74
2023/08/26 12:58:43;;;;;;;8.00;7.35;;;41.80;56.00;;;;;;6157950;28;20189;-74
2023/08/26 13:01:44;;;;;;;8.93;8.02;;;42.50;53.50;;;;;;6157261;28;20278;-74
2023/08/26 13:04:45;;;;;;;7.88;7.28;;;43.40;54.20;;;;;;6142484;28;20190;-73
2023/08/26 13:07:45;;;;;;;8.10;7.28;;;44.50;50.00;;;;;;6167985;28;20240;-73
2023/08/26 13:10:46;;;;;;;8.82;8.13;;;44.90;43.70;;;;;;6164276;28;20197;-73
2023/08/26 13:13:47;;;;;;;7.95;6.88;;;45.50;41.70;;;;;;6158606;28;20188;-73
2023/08/26 13:16:47;;;;;;;9.25;7.00;;;45.80;43.90;;;;;;6154458;28;20224;-73
2023/08/26 13:19:48;;;;;;;7.80;7.20;;;46.20;43.90;;;;;;6164853;28;20249;-73
2023/08/26 13:22:51;;;;;;;8.35;7.57;;;46.40;42.50;;;;;;6173492;28;20279;-73
2023/08/26 13:25:51;;;;;;;8.27;7.68;;;46.60;41.50;;;;;;6158037;28;20193;-74
2023/08/26 13:28:52;;;;;;;8.38;7.68;;;46.90;39.70;;;;;;6157674;28;20180;-74
2023/08/26 13:31:53;;;;;;;7.57;7.05;;;46.90;42.00;;;;;;6162074;28;20188;-74
2023/08/26 13:34:53;;;;;;;7.97;7.22;;;46.90;39.80;;;;;;6159349;28;20193;-74
2023/08/26 13:37:54;;;;;;;8.07;7.28;;;46.70;37.80;;;;;;6158070;28;20227;-74
2023/08/26 13:40:55;;;;;;;7.97;7.18;;;46.90;38.50;;;;;;6160879;28;20242;-74
2023/08/26 13:43:55;;;;;;;8.20;7.40;;;47.00;39.20;;;;;;6148670;28;20193;-74
2023/08/26 13:46:56;;;;;;;8.13;7.25;;;46.80;37.60;;;;;;6154045;28;20192;-74
2023/08/26 13:49:57;;;;;;;7.10;6.70;;;46.70;39.10;;;;;;6160349;28;20192;-74
2023/08/26 13:52:57;;;;;;;7.40;6.72;;;46.40;38.60;;;;;;6158380;28;20191;-74
2023/08/26 13:55:58;;;;;;;8.40;7.60;;;46.50;38.00;;;;;;6157794;28;20222;-70
2023/08/26 13:59:00;;;;;;;7.82;7.03;;;46.60;40.30;;;;;;6162041;28;20266;-69
2023/08/26 14:02:01;;;;;;;9.82;7.18;;;;;;;;;;6170428;28;20189;-69
2023/08/26 14:05:03;;;;;;;7.80;7.20;;;;;;;;;;6158150;28;20195;-69
2023/08/26 14:08:04;;;;;;;7.93;7.13;;;;;;;;;;6172497;28;20259;-69
2023/08/26 14:11:04;;;;;;;7.95;7.10;;;46.50;37.30;;;;;;6171154;28;20258;-69
2023/08/26 14:14:05;;;;;;;8.20;7.55;;;;;;;;;;6177802;28;20191;-69
2023/08/26 14:17:07;;;;;;;8.30;7.50;;;46.30;36.60;;;;;;6189566;28;20290;-70
2023/08/26 14:20:08;;;;;;;10.32;7.40;;;;;;;;;;6144960;28;20188;-69
2023/08/26 14:23:09;;;;;;;7.63;6.93;;;;;;;;;;6158225;28;20188;-70
2023/08/26 14:26:10;;;;;;;7.35;6.63;;;;;;;;;;6166518;28;20188;-69
2023/08/26 14:29:11;;;;;;;8.35;7.55;;;45.90;38.20;;;;;;6156704;28;20230;-68
2023/08/26 14:32:12;;;;;;;7.85;7.25;;;;;;;;;;6163899;28;20193;-69
2023/08/26 14:35:13;;;;;;;8.40;7.60;;;;;;;;;;6174524;28;20199;-69
2023/08/26 14:38:14;;;;;;;9.85;8.98;;;;;;;;;;6157826;28;20223;-69
2023/08/26 14:41:15;;;;;;;9.13;8.20;;;;;;;;;;6154665;28;20279;-68
2023/08/26 14:44:16;;;;;;;8.65;7.80;;;;;;;;;;6156374;28;20189;-69
2023/08/26 14:47:18;;;;;;;9.70;8.80;;;39.40;48.10;;;;;;6172850;28;20199;-69
2023/08/26 14:50:18;;;;;;;9.83;8.77;;;38.90;46.80;;;;;;6165601;28;20189;-69
2023/08/26 14:53:19;;;;;;;9.40;8.53;;;;;;;;;;6154232;28;20199;-69
2023/08/26 14:56:20;;;;;;;9.43;8.53;;;;;;;;;;6158128;28;20216;-69
2023/08/26 14:59:22;;;;;;;8.30;7.50;;;37.70;50.10;;;;;;6158029;28;20184;-69
2023/08/26 15:02:23;;;;;;;9.83;8.83;;;37.10;50.20;;;;;;6165608;28;20193;-68
2023/08/26 15:05:23;;;;;;;9.87;8.97;;;36.80;50.50;;;;;;6172434;28;20200;-68
2023/08/26 15:08:25;;;;;;;9.50;8.70;;;36.60;51.90;;;;;;6170999;28;20233;-68
2023/08/26 15:11:25;;;;;;;9.97;9.07;;;36.50;54.10;;;;;;6174750;28;20199;-68
2023/08/26 15:14:26;;;;;;;11.30;8.67;;;36.20;52.50;;;;;;6143860;28;20192;-68
2023/08/26 15:17:26;;;;;;;10.90;8.87;;;36.10;53.10;;;;;;6159177;28;20205;-69
2023/08/26 15:20:27;;;;;;;10.83;8.80;;;36.00;52.80;;;;;;6139484;28;20181;-69
2023/08/26 15:23:28;;;;;;;9.47;8.47;;;35.90;54.00;;;;;;6159011;28;20187;-69
2023/08/26 15:26:28;;;;;;;10.07;9.07;;;35.90;55.40;;;;;;6143197;28;20200;-69
2023/08/26 15:29:29;;;;;;;8.80;7.87;;;35.20;55.10;;;;;;6162993;28;20220;-69
2023/08/26 15:32:30;;;;;;;9.20;8.40;;;34.80;55.10;;;;;;6156278;28;20224;-69
2023/08/26 15:35:31;;;;;;;10.27;9.37;;;34.70;56.40;;;;;;6158730;28;20356;-69
2023/08/26 15:38:31;;;;;;;10.10;9.10;;;34.60;57.20;;;;;;6172793;28;20187;-69
2023/08/26 15:41:32;;;;;;;11.20;10.20;;;34.60;56.10;;;;;;6143378;28;20187;-68
2023/08/26 15:44:33;;;;;;;9.93;8.80;;;34.50;56.80;;;;;;6174718;28;20195;-69
2023/08/26 15:47:34;;;;;;;9.80;8.80;;;34.20;55.80;;;;;;6154194;28;20229;-69
2023/08/26 15:50:34;;;;;;;9.73;8.87;;;34.00;56.30;;;;;;6170540;28;20211;-69
2023/08/26 15:53:35;;;;;;;10.47;8.90;;;33.80;56.50;;;;;;6161430;28;20192;-69
2023/08/26 15:56:37;;;;;;;10.47;9.53;;;33.60;57.50;;;;;;6157742;28;20201;-69
2023/08/26 15:59:37;;;;;;;11.93;8.93;;;33.50;57.50;;;;;;6171568;28;20196;-68
2023/08/26 16:02:38;;;;;;;10.67;9.47;;;33.40;58.10;;;;;;6142414;28;20184;-69
2023/08/26 16:05:39;;;;;;;11.67;9.63;;;33.30;58.30;;;;;;6145753;28;20239;-68
2023/08/26 16:08:40;;;;;;;13.57;9.13;;;33.10;58.30;;;;;;6168823;28;20247;-67
2023/08/26 16:11:41;;;;;;;9.93;9.13;;;33.00;58.50;;;;;;6153510;28;20213;-68
2023/08/26 16:14:42;;;;;;;12.07;8.77;;;33.00;58.70;;;;;;6150866;28;20203;-68
2023/08/26 16:17:43;;;;;;;11.20;10.13;;;32.80;59.20;;;;;;6165699;28;20208;-68
2023/08/26 16:20:44;;;;;;;9.50;8.40;;;32.60;60.10;;;;;;6154142;28;20191;-68
2023/08/26 16:23:45;;;;;;;10.00;9.10;;;;;;;;;;6164562;28;20185;-68
2023/08/26 16:26:46;;;;;;;9.43;8.53;;;32.40;60.90;;;;;;6148081;28;20253;-69
2023/08/26 16:29:46;;;;;;;9.20;8.23;;;32.20;59.80;;;;;;6158798;28;20203;-68
2023/08/26 16:32:48;;;;;;;9.90;9.07;;;32.10;59.70;;;;;;6153396;28;20196;-68
2023/08/26 16:35:50;;;;;;;9.40;8.40;;;31.90;60.90;;;;;;6156564;28;20251;-68
2023/08/26 16:38:51;;;;;;;10.03;9.03;;;31.60;59.90;;;;;;6164807;28;20256;-68
2023/08/26 16:41:51;;;;;;;10.03;8.87;;;31.40;61.30;;;;;;6149217;28;20200;-69
2023/08/26 16:44:53;;;;;;;9.50;8.40;;;31.30;62.00;;;;;;6159983;28;20283;-68
2023/08/26 16:47:53;;;;;;;9.73;8.83;;;31.10;62.00;;;;;;6160129;28;20193;-68
2023/08/26 16:50:56;;;;;;;10.10;9.03;;;31.00;62.40;;;;;;6160127;28;20203;-68
2023/08/26 16:53:57;;;;;;;9.90;8.77;;;30.80;63.70;;;;;;6159389;28;20184;-68
2023/08/26 16:56:58;;;;;;;9.20;8.30;;;30.60;63.80;;;;;;6140949;28;20213;-68
2023/08/26 17:00:01;;;;;;;9.77;8.97;;;30.40;64.00;;;;;;6168276;28;20216;-68
2023/08/26 17:03:02;;;;;;;9.23;8.30;;;30.10;63.00;;;;;;6156661;28;20191;-69
2023/08/26 17:06:05;;;;;;;9.60;8.73;;;29.90;64.20;;;;;;6157705;28;20275;-69
2023/08/26 17:09:05;;;;;;;8.47;7.70;;;29.60;64.00;;;;;;6162850;28;20229;-68